sensor_id;sensor_type;location;lat;lon;timestamp;pressure;altitude;pressure_sealevel;temperature;humidity
22389;BME280;11362;48.102;11.620;2022-07-29T00:00:54;95221.91;;;26.42;43.94
22389;BME280;11362;48.102;11.620;2022-07-29T00:03:19;95214.78;;;26.41;43.58
22389;BME280;11362;48.102;11.620;2022-07-29T00:05:44;95213.56;;;26.42;43.76
22389;BME280;11362;48.102;11.620;2022-07-29T00:08:10;95211.22;;;26.41;43.68
22389;BME280;11362;48.102;11.620;2022-07-29T00:10:35;95214.78;;;26.41;43.65
22389;BME280;11362;48.102;11.620;2022-07-29T00:13:01;95212.00;;;26.41;43.66
22389;BME280;11362;48.102;11.620;2022-07-29T00:15:26;95216.34;;;26.42;43.88
22389;BME280;11362;48.102;11.620;2022-07-29T00:17:52;95211.22;;;26.41;43.64
22389;BME280;11362;48.102;11.620;2022-07-29T00:20:17;95214.78;;;26.41;43.81
22389;BME280;11362;48.102;11.620;2022-07-29T00:22:43;95212.00;;;26.41;43.67
22389;BME280;11362;48.102;11.620;2022-07-29T00:25:08;95214.00;;;26.41;43.70
22389;BME280;11362;48.102;11.620;2022-07-29T00:27:37;95212.41;;;26.40;43.59
22389;BME280;11362;48.102;11.620;2022-07-29T00:30:03;95215.56;;;26.42;43.73
22389;BME280;11362;48.102;11.620;2022-07-29T00:32:29;95214.00;;;26.41;43.80
22389;BME280;11362;48.102;11.620;2022-07-29T00:34:54;95209.22;;;26.41;43.63
22389;BME280;11362;48.102;11.620;2022-07-29T00:37:20;95208.44;;;26.41;43.48
22389;BME280;11362;48.102;11.620;2022-07-29T00:39:45;95210.44;;;26.40;43.78
22389;BME280;11362;48.102;11.620;2022-07-29T00:42:10;95206.41;;;26.41;43.88
22389;BME280;11362;48.102;11.620;2022-07-29T00:44:37;95207.66;;;26.40;43.87
22389;BME280;11362;48.102;11.620;2022-07-29T00:47:03;95196.50;;;26.40;43.90
22389;BME280;11362;48.102;11.620;2022-07-29T00:49:28;95190.94;;;26.40;43.44
22389;BME280;11362;48.102;11.620;2022-07-29T00:51:54;95179.78;;;26.40;43.82
22389;BME280;11362;48.102;11.620;2022-07-29T00:54:19;95179.00;;;26.40;43.53
22389;BME280;11362;48.102;11.620;2022-07-29T00:56:44;95178.22;;;26.39;43.53
22389;BME280;11362;48.102;11.620;2022-07-29T00:59:10;95174.22;;;26.40;43.43
22389;BME280;11362;48.102;11.620;2022-07-29T01:01:35;95167.09;;;26.39;43.51
22389;BME280;11362;48.102;11.620;2022-07-29T01:04:00;95175.44;;;26.39;43.59
22389;BME280;11362;48.102;11.620;2022-07-29T01:06:26;95161.53;;;26.39;43.87
22389;BME280;11362;48.102;11.620;2022-07-29T01:08:52;95165.06;;;26.40;43.86
22389;BME280;11362;48.102;11.620;2022-07-29T01:11:18;95161.53;;;26.39;43.49
22389;BME280;11362;48.102;11.620;2022-07-29T01:13:47;95164.31;;;26.39;43.89
22389;BME280;11362;48.102;11.620;2022-07-29T01:16:21;95162.75;;;26.38;43.82
22389;BME280;11362;48.102;11.620;2022-07-29T01:18:54;95165.53;;;26.38;43.82
22389;BME280;11362;48.102;11.620;2022-07-29T01:21:25;95166.31;;;26.39;43.45
22389;BME280;11362;48.102;11.620;2022-07-29T01:24:28;95157.19;;;26.38;43.85
22389;BME280;11362;48.102;11.620;2022-07-29T01:27:16;95162.75;;;26.38;43.62
22389;BME280;11362;48.102;11.620;2022-07-29T01:29:55;95165.53;;;26.38;43.50
22389;BME280;11362;48.102;11.620;2022-07-29T01:32:25;95162.75;;;26.38;43.44
22389;BME280;11362;48.102;11.620;2022-07-29T01:40:30;95152.84;;;26.37;43.71
22389;BME280;11362;48.102;11.620;2022-07-29T01:42:58;95153.59;;;26.38;43.56
22389;BME280;11362;48.102;11.620;2022-07-29T01:45:38;95152.84;;;26.37;43.84
22389;BME280;11362;48.102;11.620;2022-07-29T01:48:13;95154.41;;;26.38;43.92
22389;BME280;11362;48.102;11.620;2022-07-29T01:50:46;95147.25;;;26.37;43.63
22389;BME280;11362;48.102;11.620;2022-07-29T01:53:12;95154.81;;;26.37;43.71
22389;BME280;11362;48.102;11.620;2022-07-29T01:55:42;95153.59;;;26.38;43.90
22389;BME280;11362;48.102;11.620;2022-07-29T01:58:10;95145.66;;;26.36;43.49
22389;BME280;11362;48.102;11.620;2022-07-29T02:00:37;95145.66;;;26.36;43.85
22389;BME280;11362;48.102;11.620;2022-07-29T02:03:08;95152.03;;;26.37;43.62
22389;BME280;11362;48.102;11.620;2022-07-29T02:05:35;95140.09;;;26.36;43.45
22389;BME280;11362;48.102;11.620;2022-07-29T02:08:04;95146.47;;;26.37;43.76
22389;BME280;11362;48.102;11.620;2022-07-29T02:10:32;95142.47;;;26.38;43.41
22389;BME280;11362;48.102;11.620;2022-07-29T02:12:58;95134.53;;;26.36;43.35
22389;BME280;11362;48.102;11.620;2022-07-29T02:15:26;95134.53;;;26.36;43.87
22389;BME280;11362;48.102;11.620;2022-07-29T02:17:58;95140.09;;;26.36;43.80
22389;BME280;11362;48.102;11.620;2022-07-29T02:20:27;95128.19;;;26.36;43.48
22389;BME280;11362;48.102;11.620;2022-07-29T02:22:54;95131.75;;;26.36;43.90
22389;BME280;11362;48.102;11.620;2022-07-29T02:25:22;95123.38;;;26.36;43.50
22389;BME280;11362;48.102;11.620;2022-07-29T02:27:50;95117.81;;;26.36;43.79
22389;BME280;11362;48.102;11.620;2022-07-29T02:30:16;95121.84;;;26.35;43.68
22389;BME280;11362;48.102;11.620;2022-07-29T02:32:43;95116.25;;;26.35;43.62
22389;BME280;11362;48.102;11.620;2022-07-29T02:35:12;95116.25;;;26.35;43.83
22389;BME280;11362;48.102;11.620;2022-07-29T02:37:39;95117.81;;;26.36;43.54
22389;BME280;11362;48.102;11.620;2022-07-29T02:40:08;95110.69;;;26.35;43.68
22389;BME280;11362;48.102;11.620;2022-07-29T02:42:36;95111.47;;;26.36;43.66
22389;BME280;11362;48.102;11.620;2022-07-29T02:45:03;95110.69;;;26.35;43.78
22389;BME280;11362;48.102;11.620;2022-07-29T02:50:30;95112.25;;;26.36;43.45
22389;BME280;11362;48.102;11.620;2022-07-29T02:52:59;95108.69;;;26.36;43.58
22389;BME280;11362;48.102;11.620;2022-07-29T02:55:32;95108.69;;;26.36;43.69
22389;BME280;11362;48.102;11.620;2022-07-29T02:58:06;95102.78;;;26.34;43.80
22389;BME280;11362;48.102;11.620;2022-07-29T03:00:37;95105.13;;;26.35;43.73
22389;BME280;11362;48.102;11.620;2022-07-29T03:03:08;95101.56;;;26.35;43.87
22389;BME280;11362;48.102;11.620;2022-07-29T03:05:34;95109.13;;;26.34;43.52
22389;BME280;11362;48.102;11.620;2022-07-29T03:08:01;95114.69;;;26.34;43.74
22389;BME280;11362;48.102;11.620;2022-07-29T03:10:27;95111.91;;;26.34;43.80
22389;BME280;11362;48.102;11.620;2022-07-29T03:12:54;95112.72;;;26.35;43.54
22389;BME280;11362;48.102;11.620;2022-07-29T03:15:20;95115.50;;;26.35;43.90
22389;BME280;11362;48.102;11.620;2022-07-29T03:17:46;95109.13;;;26.34;43.91
22389;BME280;11362;48.102;11.620;2022-07-29T03:20:12;95114.69;;;26.34;43.71
22389;BME280;11362;48.102;11.620;2022-07-29T03:22:42;95109.13;;;26.34;43.98
22389;BME280;11362;48.102;11.620;2022-07-29T03:25:11;95105.56;;;26.34;43.57
22389;BME280;11362;48.102;11.620;2022-07-29T03:27:37;95102.00;;;26.33;43.61
22389;BME280;11362;48.102;11.620;2022-07-29T03:30:04;95103.56;;;26.34;43.52
22389;BME280;11362;48.102;11.620;2022-07-29T03:32:29;95109.13;;;26.34;43.83
22389;BME280;11362;48.102;11.620;2022-07-29T03:34:54;95110.34;;;26.33;43.86
22389;BME280;11362;48.102;11.620;2022-07-29T03:37:20;95108.38;;;26.34;43.95
22389;BME280;11362;48.102;11.620;2022-07-29T03:39:45;95111.91;;;26.34;43.65
22389;BME280;11362;48.102;11.620;2022-07-29T03:42:13;95106.78;;;26.33;43.82
22389;BME280;11362;48.102;11.620;2022-07-29T03:44:42;95114.69;;;26.34;43.94
22389;BME280;11362;48.102;11.620;2022-07-29T03:47:09;95109.13;;;26.34;43.66
22389;BME280;11362;48.102;11.620;2022-07-29T03:49:36;95104.78;;;26.33;43.90
22389;BME280;11362;48.102;11.620;2022-07-29T03:52:03;95104.78;;;26.33;43.95
22389;BME280;11362;48.102;11.620;2022-07-29T03:54:28;95109.13;;;26.34;43.86
22389;BME280;11362;48.102;11.620;2022-07-29T03:56:55;95108.38;;;26.34;43.78
22389;BME280;11362;48.102;11.620;2022-07-29T03:59:23;95116.72;;;26.34;43.83
22389;BME280;11362;48.102;11.620;2022-07-29T04:01:49;95113.13;;;26.33;43.67
22389;BME280;11362;48.102;11.620;2022-07-29T04:04:15;95110.34;;;26.33;43.77
22389;BME280;11362;48.102;11.620;2022-07-29T04:06:42;95107.56;;;26.33;43.45
22389;BME280;11362;48.102;11.620;2022-07-29T04:09:08;95111.91;;;26.34;43.89
22389;BME280;11362;48.102;11.620;2022-07-29T04:11:34;95113.13;;;26.33;43.76
22389;BME280;11362;48.102;11.620;2022-07-29T04:13:59;95114.69;;;26.34;43.81
22389;BME280;11362;48.102;11.620;2022-07-29T04:16:24;95113.13;;;26.33;43.93
22389;BME280;11362;48.102;11.620;2022-07-29T04:18:50;95122.28;;;26.34;43.72
22389;BME280;11362;48.102;11.620;2022-07-29T04:21:15;95124.28;;;26.33;43.71
22389;BME280;11362;48.102;11.620;2022-07-29T04:23:40;95118.72;;;26.33;43.99
22389;BME280;11362;48.102;11.620;2022-07-29T04:26:06;95126.63;;;26.35;43.81
22389;BME280;11362;48.102;11.620;2022-07-29T04:28:31;95124.28;;;26.33;43.60
22389;BME280;11362;48.102;11.620;2022-07-29T04:30:56;95130.66;;;26.34;44.02
22389;BME280;11362;48.102;11.620;2022-07-29T04:33:22;95136.97;;;26.34;43.58
22389;BME280;11362;48.102;11.620;2022-07-29T04:35:47;95127.41;;;26.35;43.78
22389;BME280;11362;48.102;11.620;2022-07-29T04:38:12;95131.41;;;26.34;43.76
22389;BME280;11362;48.102;11.620;2022-07-29T04:40:38;95134.19;;;26.34;43.90
22389;BME280;11362;48.102;11.620;2022-07-29T04:43:03;95136.97;;;26.34;43.57
22389;BME280;11362;48.102;11.620;2022-07-29T04:45:28;95139.75;;;26.34;43.68
22389;BME280;11362;48.102;11.620;2022-07-29T04:47:54;95144.09;;;26.35;43.89
22389;BME280;11362;48.102;11.620;2022-07-29T04:50:19;95144.09;;;26.35;43.70
22389;BME280;11362;48.102;11.620;2022-07-29T04:52:45;95144.09;;;26.35;43.76
22389;BME280;11362;48.102;11.620;2022-07-29T04:55:10;95145.66;;;26.36;43.79
22389;BME280;11362;48.102;11.620;2022-07-29T04:57:35;95146.47;;;26.37;43.90
22389;BME280;11362;48.102;11.620;2022-07-29T05:00:02;95156.81;;;26.36;43.86
22389;BME280;11362;48.102;11.620;2022-07-29T05:02:27;95154.03;;;26.36;43.68
22389;BME280;11362;48.102;11.620;2022-07-29T05:04:52;95162.38;;;26.36;43.43
22389;BME280;11362;48.102;11.620;2022-07-29T05:07:18;95165.97;;;26.37;43.67
22389;BME280;11362;48.102;11.620;2022-07-29T05:09:43;95169.53;;;26.37;43.64
22389;BME280;11362;48.102;11.620;2022-07-29T05:12:08;95172.31;;;26.37;43.56
22389;BME280;11362;48.102;11.620;2022-07-29T05:14:34;95165.97;;;26.37;43.56
22389;BME280;11362;48.102;11.620;2022-07-29T05:16:59;95169.88;;;26.39;43.67
22389;BME280;11362;48.102;11.620;2022-07-29T05:19:24;95169.44;;;26.41;43.68
22389;BME280;11362;48.102;11.620;2022-07-29T05:21:50;95177.34;;;26.42;43.72
22389;BME280;11362;48.102;11.620;2022-07-29T05:24:16;95171.78;;;26.42;43.86
22389;BME280;11362;48.102;11.620;2022-07-29T05:26:41;95169.78;;;26.43;44.32
22389;BME280;11362;48.102;11.620;2022-07-29T05:29:06;95173.34;;;26.43;44.15
22389;BME280;11362;48.102;11.620;2022-07-29T05:31:32;95175.69;;;26.45;44.39
22389;BME280;11362;48.102;11.620;2022-07-29T05:33:57;95178.81;;;26.47;45.01
22389;BME280;11362;48.102;11.620;2022-07-29T05:36:22;95179.19;;;26.49;45.10
22389;BME280;11362;48.102;11.620;2022-07-29T05:38:48;95183.97;;;26.48;45.16
22389;BME280;11362;48.102;11.620;2022-07-29T05:41:13;95184.28;;;26.50;45.29
22389;BME280;11362;48.102;11.620;2022-07-29T05:43:38;95185.88;;;26.51;45.14
22389;BME280;11362;48.102;11.620;2022-07-29T05:46:03;95188.31;;;26.49;44.63
22389;BME280;11362;48.102;11.620;2022-07-29T05:48:29;95187.63;;;26.29;44.00
22389;BME280;11362;48.102;11.620;2022-07-29T05:50:54;95196.53;;;26.24;43.74
22389;BME280;11362;48.102;11.620;2022-07-29T05:53:19;95190.97;;;26.24;43.59
22389;BME280;11362;48.102;11.620;2022-07-29T05:55:45;95192.19;;;26.23;43.22
22389;BME280;11362;48.102;11.620;2022-07-29T05:58:10;95193.28;;;26.26;43.16
22389;BME280;11362;48.102;11.620;2022-07-29T06:00:35;95192.84;;;26.27;43.27
22389;BME280;11362;48.102;11.620;2022-07-29T06:03:01;95194.00;;;26.30;43.57
22389;BME280;11362;48.102;11.620;2022-07-29T06:05:26;95205.03;;;26.33;43.45
22389;BME280;11362;48.102;11.620;2022-07-29T06:07:51;95212.97;;;26.35;43.37
22389;BME280;11362;48.102;11.620;2022-07-29T06:10:16;95203.81;;;26.34;43.76
22389;BME280;11362;48.102;11.620;2022-07-29T06:12:42;95200.59;;;26.36;43.67
22389;BME280;11362;48.102;11.620;2022-07-29T06:15:08;95203.81;;;26.34;43.48
22389;BME280;11362;48.102;11.620;2022-07-29T06:17:33;95196.34;;;26.31;44.04
22389;BME280;11362;48.102;11.620;2022-07-29T06:19:58;95199.13;;;26.31;43.55
22389;BME280;11362;48.102;11.620;2022-07-29T06:22:24;95189.66;;;26.29;43.48
22389;BME280;11362;48.102;11.620;2022-07-29T06:24:49;95192.44;;;26.29;43.33
22389;BME280;11362;48.102;11.620;2022-07-29T06:27:15;95191.22;;;26.30;43.04
22389;BME280;11362;48.102;11.620;2022-07-29T06:29:40;95203.16;;;26.30;43.27
22389;BME280;11362;48.102;11.620;2022-07-29T06:32:05;95201.91;;;26.31;42.97
22389;BME280;11362;48.102;11.620;2022-07-29T06:34:31;95202.34;;;26.30;42.94
22389;BME280;11362;48.102;11.620;2022-07-29T06:36:56;95202.00;;;26.28;42.84
22389;BME280;11362;48.102;11.620;2022-07-29T06:39:21;95192.19;;;26.23;42.98
22389;BME280;11362;48.102;11.620;2022-07-29T06:41:47;95196.63;;;26.21;42.67
22389;BME280;11362;48.102;11.620;2022-07-29T06:44:13;95202.28;;;26.17;42.57
22389;BME280;11362;48.102;11.620;2022-07-29T06:46:38;95201.06;;;26.18;42.63
22389;BME280;11362;48.102;11.620;2022-07-29T06:49:04;95201.06;;;26.18;42.46
22389;BME280;11362;48.102;11.620;2022-07-29T06:51:29;95206.28;;;26.16;42.16
22389;BME280;11362;48.102;11.620;2022-07-29T06:53:54;95216.38;;;26.10;42.41
22389;BME280;11362;48.102;11.620;2022-07-29T06:56:20;95208.44;;;26.09;42.62
22389;BME280;11362;48.102;11.620;2022-07-29T06:58:45;95211.84;;;26.16;42.91
22389;BME280;11362;48.102;11.620;2022-07-29T07:01:11;95210.63;;;26.17;42.68
22389;BME280;11362;48.102;11.620;2022-07-29T07:03:36;95209.81;;;26.17;42.53
22389;BME280;11362;48.102;11.620;2022-07-29T07:06:01;95209.75;;;26.20;42.56
22389;BME280;11362;48.102;11.620;2022-07-29T07:08:27;95216.19;;;26.17;42.66
22389;BME280;11362;48.102;11.620;2022-07-29T07:10:52;95215.47;;;26.13;42.33
22389;BME280;11362;48.102;11.620;2022-07-29T07:13:18;95221.69;;;26.21;42.59
22389;BME280;11362;48.102;11.620;2022-07-29T07:15:44;95221.59;;;26.24;42.29
22389;BME280;11362;48.102;11.620;2022-07-29T07:18:10;95220.28;;;26.13;42.38
22389;BME280;11362;48.102;11.620;2022-07-29T07:20:35;95217.22;;;26.07;42.00
22389;BME280;11362;48.102;11.620;2022-07-29T07:23:01;95216.00;;;25.92;41.98
22389;BME280;11362;48.102;11.620;2022-07-29T07:25:26;95216.22;;;25.82;42.28
22389;BME280;11362;48.102;11.620;2022-07-29T07:27:52;95214.88;;;25.90;42.13
22389;BME280;11362;48.102;11.620;2022-07-29T07:30:17;95213.59;;;25.94;42.42
22389;BME280;11362;48.102;11.620;2022-07-29T07:32:42;95213.72;;;25.87;42.55
22389;BME280;11362;48.102;11.620;2022-07-29T07:35:08;95219.84;;;25.98;42.05
22389;BME280;11362;48.102;11.620;2022-07-29T07:37:34;95215.81;;;25.99;41.82
22389;BME280;11362;48.102;11.620;2022-07-29T07:40:00;95214.34;;;25.95;41.43
22389;BME280;11362;48.102;11.620;2022-07-29T07:42:26;95217.56;;;25.93;41.69
22389;BME280;11362;48.102;11.620;2022-07-29T07:44:51;95217.47;;;25.97;41.39
22389;BME280;11362;48.102;11.620;2022-07-29T07:47:17;95216.72;;;25.96;41.19
22389;BME280;11362;48.102;11.620;2022-07-29T07:49:42;95216.78;;;25.93;41.16
22389;BME280;11362;48.102;11.620;2022-07-29T07:52:07;95216.38;;;25.94;41.18
22389;BME280;11362;48.102;11.620;2022-07-29T07:54:33;95210.25;;;25.99;41.11
22389;BME280;11362;48.102;11.620;2022-07-29T07:56:58;95202.88;;;25.93;40.70
22389;BME280;11362;48.102;11.620;2022-07-29T07:59:23;95209.22;;;25.93;40.80
22389;BME280;11362;48.102;11.620;2022-07-29T08:01:49;95213.28;;;25.89;40.60
22389;BME280;11362;48.102;11.620;2022-07-29T08:04:15;95209.38;;;25.86;40.44
22389;BME280;11362;48.102;11.620;2022-07-29T08:06:40;95216.13;;;25.85;40.47
22389;BME280;11362;48.102;11.620;2022-07-29T08:09:05;95216.28;;;25.78;40.23
22389;BME280;11362;48.102;11.620;2022-07-29T08:11:31;95216.94;;;25.86;40.50
22389;BME280;11362;48.102;11.620;2022-07-29T08:13:57;95217.56;;;25.93;40.51
22389;BME280;11362;48.102;11.620;2022-07-29T08:16:22;95221.84;;;25.98;40.65
22389;BME280;11362;48.102;11.620;2022-07-29T08:18:48;95215.66;;;26.06;40.51
22389;BME280;11362;48.102;11.620;2022-07-29T08:21:14;95213.94;;;26.12;40.74
22389;BME280;11362;48.102;11.620;2022-07-29T08:23:39;95213.06;;;26.15;40.36
22389;BME280;11362;48.102;11.620;2022-07-29T08:26:06;95220.88;;;26.20;40.83
22389;BME280;11362;48.102;11.620;2022-07-29T08:28:31;95229.41;;;26.29;40.68
22389;BME280;11362;48.102;11.620;2022-07-29T08:30:57;95211.41;;;26.34;41.02
22389;BME280;11362;48.102;11.620;2022-07-29T08:33:22;95219.69;;;26.37;40.78
22389;BME280;11362;48.102;11.620;2022-07-29T08:35:47;95206.19;;;26.36;40.46
22389;BME280;11362;48.102;11.620;2022-07-29T08:38:12;95209.31;;;26.38;40.92
22389;BME280;11362;48.102;11.620;2022-07-29T08:40:39;95210.84;;;26.39;40.75
22389;BME280;11362;48.102;11.620;2022-07-29T08:43:08;95207.66;;;26.40;40.33
22389;BME280;11362;48.102;11.620;2022-07-29T08:45:45;95221.31;;;26.35;40.60
22389;BME280;11362;48.102;11.620;2022-07-29T08:48:12;95220.00;;;26.39;40.19
22389;BME280;11362;48.102;11.620;2022-07-29T08:50:38;95214.78;;;26.41;40.46
22389;BME280;11362;48.102;11.620;2022-07-29T08:53:05;95225.06;;;26.44;40.42
22389;BME280;11362;48.102;11.620;2022-07-29T08:55:32;95227.06;;;26.44;40.90
22389;BME280;11362;48.102;11.620;2022-07-29T08:57:58;95228.28;;;26.43;41.10
22389;BME280;11362;48.102;11.620;2022-07-29T09:00:25;95220.34;;;26.41;40.69
22389;BME280;11362;48.102;11.620;2022-07-29T09:02:56;95225.66;;;26.36;40.88
22389;BME280;11362;48.102;11.620;2022-07-29T09:05:23;95227.75;;;26.32;40.82
22389;BME280;11362;48.102;11.620;2022-07-29T09:07:49;95228.97;;;26.31;40.83
22389;BME280;11362;48.102;11.620;2022-07-29T09:10:15;95233.22;;;26.35;40.65
22389;BME280;11362;48.102;11.620;2022-07-29T09:12:40;95240.38;;;26.36;40.69
22389;BME280;11362;48.102;11.620;2022-07-29T09:15:06;95235.94;;;26.39;40.89
22389;BME280;11362;48.102;11.620;2022-07-29T09:17:46;95235.50;;;26.40;41.05
22389;BME280;11362;48.102;11.620;2022-07-29T09:20:14;95238.19;;;26.44;40.65
22389;BME280;11362;48.102;11.620;2022-07-29T09:22:39;95235.84;;;26.42;40.86
22389;BME280;11362;48.102;11.620;2022-07-29T09:25:05;95238.47;;;26.33;40.60
22389;BME280;11362;48.102;11.620;2022-07-29T09:27:31;95238.28;;;26.40;40.66
22389;BME280;11362;48.102;11.620;2022-07-29T09:30:14;95221.72;;;26.49;40.94
22389;BME280;11362;48.102;11.620;2022-07-29T09:32:56;95218.47;;;26.54;41.02
22389;BME280;11362;48.102;11.620;2022-07-29T09:35:25;95221.94;;;26.58;41.44
22389;BME280;11362;48.102;11.620;2022-07-29T09:37:51;95219.03;;;26.62;40.95
22389;BME280;11362;48.102;11.620;2022-07-29T09:40:22;95218.28;;;26.61;41.43
22389;BME280;11362;48.102;11.620;2022-07-29T09:42:48;95212.78;;;26.58;40.94
22389;BME280;11362;48.102;11.620;2022-07-29T09:45:31;95216.00;;;26.56;41.08
22389;BME280;11362;48.102;11.620;2022-07-29T09:47:57;95209.22;;;26.57;41.50
22389;BME280;11362;48.102;11.620;2022-07-29T09:50:22;95209.03;;;26.48;41.46
22389;BME280;11362;48.102;11.620;2022-07-29T09:52:59;95205.00;;;26.49;41.67
22389;BME280;11362;48.102;11.620;2022-07-29T09:55:24;95213.75;;;26.51;41.69
22389;BME280;11362;48.102;11.620;2022-07-29T09:57:49;95212.53;;;26.52;41.88
22389;BME280;11362;48.102;11.620;2022-07-29T10:00:18;95215.34;;;26.52;41.67
22389;BME280;11362;48.102;11.620;2022-07-29T10:02:45;95207.81;;;26.49;41.89
22389;BME280;11362;48.102;11.620;2022-07-29T10:05:25;95209.81;;;26.49;41.86
22389;BME280;11362;48.102;11.620;2022-07-29T10:07:55;95214.50;;;26.52;41.84
22389;BME280;11362;48.102;11.620;2022-07-29T10:10:30;95208.94;;;26.52;42.05
22389;BME280;11362;48.102;11.620;2022-07-29T10:12:58;95218.50;;;26.51;42.77
22389;BME280;11362;48.102;11.620;2022-07-29T10:15:26;95211.31;;;26.53;41.89
22389;BME280;11362;48.102;11.620;2022-07-29T10:17:54;95208.16;;;26.51;42.55
22389;BME280;11362;48.102;11.620;2022-07-29T10:20:21;95210.59;;;26.49;42.61
22389;BME280;11362;48.102;11.620;2022-07-29T10:22:48;95213.03;;;26.47;42.84
22389;BME280;11362;48.102;11.620;2022-07-29T10:25:14;95219.84;;;26.46;42.55
22389;BME280;11362;48.102;11.620;2022-07-29T10:27:40;95215.13;;;26.43;42.39
22389;BME280;11362;48.102;11.620;2022-07-29T10:30:06;95216.72;;;26.44;42.48
22389;BME280;11362;48.102;11.620;2022-07-29T10:38:21;95216.44;;;26.39;42.42
22389;BME280;11362;48.102;11.620;2022-07-29T10:44:03;95211.22;;;26.41;42.50
22389;BME280;11362;48.102;11.620;2022-07-29T10:46:35;95214.78;;;26.41;42.66
22389;BME280;11362;48.102;11.620;2022-07-29T10:52:06;95220.34;;;26.41;43.07
22389;BME280;11362;48.102;11.620;2022-07-29T10:54:48;95217.13;;;26.43;42.86
22389;BME280;11362;48.102;11.620;2022-07-29T10:57:27;95204.94;;;26.37;42.84
22389;BME280;11362;48.102;11.620;2022-07-29T11:05:11;95214.25;;;26.62;42.54
22389;BME280;11362;48.102;11.620;2022-07-29T11:07:38;95208.44;;;26.57;42.37
22389;BME280;11362;48.102;11.620;2022-07-29T11:15:08;95209.72;;;26.68;42.77
22389;BME280;11362;48.102;11.620;2022-07-29T11:23:17;95202.84;;;26.73;42.91
22389;BME280;11362;48.102;11.620;2022-07-29T11:25:43;95202.41;;;26.74;42.93
22389;BME280;11362;48.102;11.620;2022-07-29T11:28:14;95197.34;;;26.69;42.69
22389;BME280;11362;48.102;11.620;2022-07-29T11:30:51;95199.81;;;26.67;42.99
22389;BME280;11362;48.102;11.620;2022-07-29T11:33:32;95194.22;;;26.67;42.81
22389;BME280;11362;48.102;11.620;2022-07-29T11:38:33;95186.63;;;26.68;42.78
22389;BME280;11362;48.102;11.620;2022-07-29T11:43:46;95175.84;;;26.70;42.98
22389;BME280;11362;48.102;11.620;2022-07-29T11:46:12;95165.47;;;26.70;42.78
22389;BME280;11362;48.102;11.620;2022-07-29T11:48:41;95173.84;;;26.70;42.78
22389;BME280;11362;48.102;11.620;2022-07-29T11:51:11;95178.53;;;26.73;41.93
22389;BME280;11362;48.102;11.620;2022-07-29T11:53:37;95171.75;;;26.74;41.13
22389;BME280;11362;48.102;11.620;2022-07-29T11:56:03;95174.53;;;26.74;41.01
22389;BME280;11362;48.102;11.620;2022-07-29T11:58:32;95167.72;;;26.75;41.07
22389;BME280;11362;48.102;11.620;2022-07-29T12:00:59;95177.31;;;26.74;41.03
22389;BME280;11362;48.102;11.620;2022-07-29T12:03:27;95174.97;;;26.73;41.01
22389;BME280;11362;48.102;11.620;2022-07-29T12:05:53;95176.63;;;26.70;40.88
22389;BME280;11362;48.102;11.620;2022-07-29T12:08:21;95167.94;;;26.68;41.05
22389;BME280;11362;48.102;11.620;2022-07-29T12:10:48;95158.69;;;26.71;41.13
22389;BME280;11362;48.102;11.620;2022-07-29T12:13:16;95160.69;;;26.71;41.64
22389;BME280;11362;48.102;11.620;2022-07-29T12:15:42;95156.00;;;26.68;41.63
22389;BME280;11362;48.102;11.620;2022-07-29T12:18:20;95155.22;;;26.67;41.51
22389;BME280;11362;48.102;11.620;2022-07-29T12:20:47;95154.09;;;26.65;41.67
22389;BME280;11362;48.102;11.620;2022-07-29T12:23:12;95159.66;;;26.65;41.57
22389;BME280;11362;48.102;11.620;2022-07-29T12:25:40;95148.09;;;26.66;41.63
22389;BME280;11362;48.102;11.620;2022-07-29T12:28:08;95147.28;;;26.66;41.93
22389;BME280;11362;48.102;11.620;2022-07-29T12:30:46;95148.09;;;26.66;41.65
22389;BME280;11362;48.102;11.620;2022-07-29T12:33:12;95144.50;;;26.66;41.87
22389;BME280;11362;48.102;11.620;2022-07-29T12:35:38;95143.28;;;26.67;41.71
22389;BME280;11362;48.102;11.620;2022-07-29T12:38:04;95143.72;;;26.65;41.75
22389;BME280;11362;48.102;11.620;2022-07-29T12:40:30;95151.31;;;26.65;41.69
22389;BME280;11362;48.102;11.620;2022-07-29T12:45:31;95141.72;;;26.66;42.08
22389;BME280;11362;48.102;11.620;2022-07-29T12:47:56;95143.28;;;26.67;42.04
22389;BME280;11362;48.102;11.620;2022-07-29T12:50:22;95141.28;;;26.67;41.72
22389;BME280;11362;48.102;11.620;2022-07-29T12:52:48;95146.06;;;26.67;41.93
22389;BME280;11362;48.102;11.620;2022-07-29T12:55:14;95145.72;;;26.65;42.03
22389;BME280;11362;48.102;11.620;2022-07-29T12:57:50;95150.88;;;26.66;42.10
22389;BME280;11362;48.102;11.620;2022-07-29T13:00:16;95145.31;;;26.66;41.43
22389;BME280;11362;48.102;11.620;2022-07-29T13:02:43;95148.09;;;26.66;41.87
22389;BME280;11362;48.102;11.620;2022-07-29T13:05:09;95151.75;;;26.63;41.49
22389;BME280;11362;48.102;11.620;2022-07-29T13:07:36;95146.16;;;26.63;41.12
22389;BME280;11362;48.102;11.620;2022-07-29T13:12:39;95153.50;;;26.57;40.38
22389;BME280;11362;48.102;11.620;2022-07-29T13:15:16;95150.53;;;26.48;39.99
22389;BME280;11362;48.102;11.620;2022-07-29T13:17:42;95155.06;;;26.42;40.49
22389;BME280;11362;48.102;11.620;2022-07-29T13:20:10;95152.66;;;26.44;40.09
22389;BME280;11362;48.102;11.620;2022-07-29T13:22:35;95146.19;;;26.47;40.68
22389;BME280;11362;48.102;11.620;2022-07-29T13:25:01;95138.16;;;26.49;40.59
22389;BME280;11362;48.102;11.620;2022-07-29T13:27:29;95139.81;;;26.47;40.74
22389;BME280;11362;48.102;11.620;2022-07-29T13:29:56;95141.41;;;26.48;41.05
22389;BME280;11362;48.102;11.620;2022-07-29T13:32:22;95141.41;;;26.48;41.16
22389;BME280;11362;48.102;11.620;2022-07-29T13:34:48;95144.97;;;26.48;41.14
22389;BME280;11362;48.102;11.620;2022-07-29T13:37:13;95143.72;;;26.49;41.06